Time;durP1;ratioP1;P1;durP2;ratioP2;P2;SDS_P1;SDS_P2;PMS_P1;PMS_P2;Temp;Humidity;BMP_temperature;BMP_pressure;BME280_temperature;BME280_humidity;BME280_pressure;Samples;Min_cycle;Max_cycle;Signal;HPM_P1;HPM_P2
2024/01/19 00:04:44;;;;;;;23.20;14.67;;;;;-2.10;100934.00;;;;9812603;29;20327;-83
2024/01/19 00:09:45;;;;;;;20.43;13.40;;;;;-2.20;100942.00;;;;9772659;30;20264;-85
2024/01/19 00:14:47;;;;;;;22.97;14.10;;;;;-2.20;100930.00;;;;9781510;30;20233;-85
2024/01/19 00:19:48;;;;;;;31.83;15.23;;;;;-2.20;100939.00;;;;9785370;30;20228;-84
2024/01/19 00:24:49;;;;;;;30.97;14.03;;;;;-2.10;100946.00;;;;9798288;30;20251;-84
2024/01/19 00:29:50;;;;;;;24.43;14.27;;;;;-2.10;100951.00;;;;9804445;30;20324;-85
2024/01/19 00:34:51;;;;;;;19.37;12.33;;;;;-2.00;100958.00;;;;9773889;30;20266;-85
2024/01/19 00:39:52;;;;;;;21.43;13.67;;;;;-2.00;100959.00;;;;9775993;30;20264;-85
2024/01/19 00:44:53;;;;;;;19.93;12.40;;;;;-2.10;100966.00;;;;9782608;30;20326;-85
2024/01/19 00:49:55;;;;;;;19.47;12.47;;;;;-2.20;100965.00;;;;9798863;30;20232;-85
2024/01/19 00:54:56;;;;;;;21.80;12.93;;;;;-2.30;100974.00;;;;9772536;29;20241;-85
2024/01/19 00:59:57;;;;;;;25.20;14.20;;;;;-2.30;100974.00;;;;9776388;30;20659;-85
2024/01/19 01:05:02;;;;;;;27.87;14.07;;;;;-2.40;100974.00;;;;9775353;30;20331;-85
2024/01/19 01:10:04;;;;;;;22.10;13.60;;;;;-2.50;100969.00;;;;9779786;30;20248;-86
2024/01/19 01:15:05;;;;;;;21.93;11.63;;;;;-2.60;100974.00;;;;9775155;30;20241;-82
2024/01/19 01:20:09;;;;;;;25.33;12.23;;;;;-2.70;100969.00;;;;9777015;30;20270;-83
2024/01/19 01:25:11;;;;;;;17.23;9.80;;;;;-2.80;100985.00;;;;9761206;30;20657;-84
2024/01/19 01:30:12;;;;;;;18.47;10.60;;;;;-2.90;100995.00;;;;9790436;30;20294;-85
2024/01/19 01:35:13;;;;;;;20.20;10.57;;;;;-3.00;100993.00;;;;9775902;30;20225;-86
2024/01/19 01:40:14;;;;;;;16.30;9.03;;;;;-3.00;100985.00;;;;9772477;30;20228;-84
2024/01/19 01:45:15;;;;;;;17.00;10.03;;;;;-3.00;100992.00;;;;9792870;30;20243;-83
2024/01/19 01:50:17;;;;;;;19.23;9.97;;;;;-3.00;100993.00;;;;9778030;30;20237;-85
2024/01/19 01:55:18;;;;;;;16.67;9.97;;;;;-2.80;100996.00;;;;9802065;30;20305;-84
2024/01/19 02:00:20;;;;;;;19.13;10.30;;;;;-2.70;100998.00;;;;9796798;30;20502;-80
2024/01/19 02:05:21;;;;;;;17.70;9.47;;;;;-2.70;100996.00;;;;9780710;30;20382;-81
2024/01/19 02:10:23;;;;;;;22.00;11.43;;;;;-2.70;101012.00;;;;9771621;30;20751;-79
2024/01/19 02:15:26;;;;;;;17.93;9.77;;;;;-2.70;101019.00;;;;9766985;30;20320;-79
2024/01/19 02:20:27;;;;;;;15.10;9.60;;;;;-2.70;101021.00;;;;9808966;29;21020;-81
2024/01/19 02:25:28;;;;;;;17.47;10.37;;;;;-2.70;101043.00;;;;9795705;30;20232;-79
2024/01/19 02:30:30;;;;;;;18.33;11.63;;;;;-2.70;101056.00;;;;9779373;30;21063;-79
2024/01/19 02:35:32;;;;;;;15.10;9.87;;;;;-2.70;101069.00;;;;9793775;30;20870;-79
2024/01/19 02:40:33;;;;;;;22.70;11.70;;;;;-2.70;101066.00;;;;9779963;30;20257;-81
2024/01/19 02:45:34;;;;;;;18.37;10.47;;;;;-2.70;101072.00;;;;9795897;30;20224;-79
2024/01/19 02:50:35;;;;;;;19.20;10.80;;;;;-2.70;101088.00;;;;9779051;30;20242;-80
2024/01/19 02:55:36;;;;;;;16.93;10.73;;;;;-2.80;101082.00;;;;9811943;29;20232;-80
2024/01/19 03:00:37;;;;;;;21.53;12.80;;;;;-2.80;101092.00;;;;9779475;30;20387;-80
2024/01/19 03:05:39;;;;;;;19.00;11.97;;;;;-2.90;101080.00;;;;9806613;30;20234;-80
2024/01/19 03:10:40;;;;;;;23.67;12.53;;;;;-2.90;101093.00;;;;9794276;30;20315;-80
2024/01/19 03:15:41;;;;;;;23.73;11.90;;;;;-3.00;101091.00;;;;9779392;30;20329;-81
2024/01/19 03:20:42;;;;;;;21.87;12.30;;;;;-3.10;101089.00;;;;9776410;30;20259;-82
2024/01/19 03:25:43;;;;;;;26.70;14.63;;;;;-3.20;101100.00;;;;9776576;30;20235;-82
2024/01/19 03:30:44;;;;;;;25.13;12.73;;;;;-3.20;101116.00;;;;9810828;29;20236;-82
2024/01/19 03:35:45;;;;;;;24.67;13.67;;;;;-3.30;101124.00;;;;9789643;30;20817;-82
2024/01/19 03:40:47;;;;;;;27.67;14.87;;;;;-3.30;101111.00;;;;9780071;30;20508;-82
2024/01/19 03:45:48;;;;;;;25.67;14.73;;;;;-3.30;101125.00;;;;9800390;30;20604;-82
2024/01/19 03:50:49;;;;;;;27.20;13.90;;;;;-3.30;101118.00;;;;9799715;30;20969;-82
2024/01/19 03:55:50;;;;;;;29.43;15.23;;;;;-3.40;101133.00;;;;9768974;30;20299;-82
2024/01/19 04:00:51;;;;;;;26.20;13.70;;;;;-3.40;101130.00;;;;9777863;30;20237;-82
2024/01/19 04:05:52;;;;;;;30.60;13.97;;;;;-3.50;101129.00;;;;9795236;30;20296;-82
2024/01/19 04:10:54;;;;;;;26.77;13.47;;;;;-3.50;101141.00;;;;9796812;30;20237;-83
2024/01/19 04:15:55;;;;;;;26.30;12.37;;;;;-3.50;101138.00;;;;9797032;30;20239;-82
2024/01/19 04:20:56;;;;;;;26.90;13.87;;;;;-3.50;101146.00;;;;9798470;30;20228;-83
2024/01/19 04:25:58;;;;;;;26.97;14.63;;;;;-3.50;101149.00;;;;9771225;30;20260;-82
2024/01/19 04:30:59;;;;;;;30.27;15.00;;;;;-3.50;101164.00;;;;9807009;29;20240;-88
2024/01/19 04:36:00;;;;;;;32.77;14.70;;;;;-3.60;101163.00;;;;9819267;30;20294;-90
2024/01/19 04:41:02;;;;;;;25.57;15.03;;;;;-3.50;101177.00;;;;9797676;30;20232;-90
2024/01/19 04:46:03;;;;;;;28.87;14.77;;;;;-3.50;101183.00;;;;9799117;30;20402;-90
2024/01/19 04:51:05;;;;;;;27.37;14.40;;;;;-3.60;101185.00;;;;9822251;30;20233;-87
2024/01/19 04:56:06;;;;;;;30.07;15.00;;;;;-3.60;101196.00;;;;9803191;30;20243;-89
2024/01/19 05:01:08;;;;;;;26.40;15.67;;;;;-3.50;101190.00;;;;9818021;29;20240;-90
2024/01/19 05:06:13;;;;;;;33.33;16.40;;;;;-3.50;101208.00;;;;9803590;30;20302;-90
2024/01/19 05:11:14;;;;;;;30.43;16.50;;;;;-3.50;101196.00;;;;9807241;30;20241;-87
2024/01/19 05:16:16;;;;;;;31.10;15.43;;;;;-3.60;101203.00;;;;9829182;30;20237;-87
2024/01/19 05:21:17;;;;;;;27.87;16.63;;;;;-3.60;101219.00;;;;9833022;30;20228;-87
2024/01/19 05:26:18;;;;;;;27.27;15.40;;;;;-3.60;101213.00;;;;9805658;30;20232;-88
2024/01/19 05:31:19;;;;;;;34.90;16.80;;;;;-3.60;101223.00;;;;9834161;30;20720;-87
2024/01/19 05:36:21;;;;;;;35.07;17.63;;;;;-3.50;101233.00;;;;9821873;30;20244;-87
2024/01/19 05:41:22;;;;;;;33.80;17.37;;;;;-3.50;101232.00;;;;9810890;30;20884;-82
2024/01/19 05:46:24;;;;;;;31.27;16.33;;;;;-3.50;101238.00;;;;9781850;30;20745;-82
2024/01/19 05:51:25;;;;;;;39.90;19.47;;;;;-3.60;101244.00;;;;9771172;30;20236;-81
2024/01/19 05:56:26;;;;;;;30.67;16.40;;;;;-3.60;101248.00;;;;9796497;30;20311;-83
2024/01/19 06:01:27;;;;;;;43.00;17.33;;;;;-3.60;101254.00;;;;9765351;30;20232;-82
2024/01/19 06:06:28;;;;;;;33.67;16.73;;;;;-3.60;101259.00;;;;9779132;30;20318;-83
2024/01/19 06:11:29;;;;;;;38.53;18.37;;;;;-3.60;101267.00;;;;9795918;30;21108;-82
2024/01/19 06:16:31;;;;;;;46.50;19.90;;;;;-3.60;101281.00;;;;9782525;30;20311;-82
2024/01/19 06:21:32;;;;;;;36.13;18.30;;;;;-3.60;101282.00;;;;9796219;30;20236;-83
2024/01/19 06:26:33;;;;;;;40.17;18.20;;;;;-3.60;101291.00;;;;9773977;30;20247;-83
2024/01/19 06:31:42;;;;;;;64.47;20.37;;;;;-3.50;101318.00;;;;9805464;30;20724;-82
2024/01/19 06:36:44;;;;;;;29.83;17.33;;;;;-3.50;101320.00;;;;9782386;30;20236;-82
2024/01/19 06:41:45;;;;;;;48.43;21.37;;;;;-3.50;101328.00;;;;9780579;30;20232;-82
2024/01/19 06:46:47;;;;;;;37.73;16.67;;;;;-3.50;101337.00;;;;9800030;30;20290;-83
2024/01/19 06:51:48;;;;;;;31.77;17.30;;;;;-3.60;101346.00;;;;9795636;29;20267;-84
2024/01/19 06:56:49;;;;;;;32.60;17.73;;;;;-3.60;101346.00;;;;9795852;30;20751;-84
2024/01/19 07:01:51;;;;;;;32.60;17.13;;;;;-3.60;101367.00;;;;9792081;30;20730;-83
2024/01/19 07:06:52;;;;;;;38.77;19.80;;;;;-3.50;101371.00;;;;9791237;30;20336;-83
2024/01/19 07:11:53;;;;;;;41.00;18.13;;;;;-3.40;101372.00;;;;9782785;30;20306;-83
2024/01/19 07:16:55;;;;;;;41.30;19.67;;;;;-3.40;101368.00;;;;9778371;30;20231;-83
2024/01/19 07:21:56;;;;;;;43.73;21.27;;;;;-3.40;101387.00;;;;9787638;30;20237;-88
2024/01/19 07:26:57;;;;;;;39.07;21.60;;;;;-3.30;101385.00;;;;9758732;30;20232;-83
2024/01/19 07:31:59;;;;;;;37.50;20.60;;;;;-3.20;101402.00;;;;9799372;30;20225;-83
2024/01/19 07:37:02;;;;;;;36.60;20.80;;;;;-3.20;101405.00;;;;9778945;30;20233;-84
2024/01/19 07:42:03;;;;;;;37.77;22.10;;;;;-3.20;101397.00;;;;9778277;30;20236;-83
2024/01/19 07:47:04;;;;;;;48.67;22.57;;;;;-3.20;101413.00;;;;9761198;30;20256;-83
2024/01/19 07:52:06;;;;;;;78.20;36.43;;;;;-3.20;101423.00;;;;9796341;30;20313;-83
2024/01/19 07:57:07;;;;;;;49.63;22.20;;;;;-3.30;101431.00;;;;9785320;30;20235;-83
2024/01/19 08:02:09;;;;;;;41.07;22.70;;;;;-3.30;101438.00;;;;9797944;30;20256;-83
2024/01/19 08:07:10;;;;;;;51.53;21.60;;;;;-3.20;101436.00;;;;9777614;30;20229;-82
2024/01/19 08:12:11;;;;;;;45.40;23.97;;;;;-3.20;101452.00;;;;9779526;30;21037;-84
2024/01/19 08:17:12;;;;;;;50.17;22.10;;;;;-3.10;101466.00;;;;9791451;30;20225;-82
2024/01/19 08:22:13;;;;;;;42.67;21.50;;;;;-3.00;101469.00;;;;9792322;30;20315;-84
2024/01/19 08:27:15;;;;;;;47.83;22.97;;;;;-2.80;101477.00;;;;9777706;30;20249;-82
2024/01/19 08:32:16;;;;;;;50.67;24.70;;;;;-2.70;101483.00;;;;9776973;30;20244;-82
2024/01/19 08:37:17;;;;;;;53.30;24.57;;;;;-2.50;101494.00;;;;9793265;30;20296;-83
2024/01/19 08:42:18;;;;;;;49.23;24.47;;;;;-2.30;101502.00;;;;9776984;30;20236;-83
2024/01/19 08:47:19;;;;;;;53.17;25.70;;;;;-2.10;101514.00;;;;9800263;30;20287;-82
2024/01/19 08:52:20;;;;;;;48.97;25.13;;;;;-1.90;101528.00;;;;9788192;30;20232;-81
2024/01/19 08:57:23;;;;;;;53.73;27.10;;;;;-1.60;101536.00;;;;9792172;30;20229;-81
2024/01/19 09:02:24;;;;;;;52.47;25.90;;;;;-1.30;101527.00;;;;9805240;29;20240;-80
2024/01/19 09:07:27;;;;;;;67.07;30.43;;;;;-0.90;101546.00;;;;9778231;30;20272;-82
2024/01/19 09:12:28;;;;;;;59.93;30.37;;;;;-0.40;101568.00;;;;9792858;29;20790;-82
2024/01/19 09:17:30;;;;;;;51.23;28.53;;;;;0.00;101573.00;;;;9792172;30;20236;-83
2024/01/19 09:22:31;;;;;;;53.60;27.30;;;;;0.40;101591.00;;;;9766709;30;20988;-85
2024/01/19 09:27:32;;;;;;;47.67;25.57;;;;;0.70;101596.00;;;;9768158;30;20244;-85
2024/01/19 09:32:33;;;;;;;49.93;26.00;;;;;1.00;101584.00;;;;9793615;30;20845;-85
2024/01/19 09:37:34;;;;;;;46.40;25.80;;;;;1.20;101602.00;;;;9774901;30;20291;-85
2024/01/19 09:42:39;;;;;;;47.57;27.27;;;;;1.40;101620.00;;;;9795349;29;20240;-86
2024/01/19 09:47:52;;;;;;;55.17;24.90;;;;;1.80;101622.00;;;;9791422;30;20262;-87
2024/01/19 09:53:00;;;;;;;47.73;23.03;;;;;2.00;101626.00;;;;9790689;30;20240;-86
2024/01/19 09:58:03;;;;;;;47.70;24.40;;;;;2.20;101636.00;;;;9772259;30;20245;-89
2024/01/19 10:03:11;;;;;;;51.83;26.23;;;;;2.40;101638.00;;;;9792983;30;20244;-87
2024/01/19 10:08:13;;;;;;;52.73;26.33;;;;;2.60;101655.00;;;;9790462;30;20313;-87
2024/01/19 10:13:14;;;;;;;55.77;25.93;;;;;2.80;101646.00;;;;9790885;30;20243;-86
2024/01/19 10:18:17;;;;;;;51.63;27.37;;;;;3.00;101658.00;;;;9775337;30;20233;-86
2024/01/19 10:23:21;;;;;;;45.77;28.57;;;;;3.20;101657.00;;;;9771540;30;20232;-81
2024/01/19 10:28:34;;;;;;;58.20;30.47;;;;;3.40;101659.00;;;;9772376;30;20818;-81
2024/01/19 10:33:36;;;;;;;46.67;29.40;;;;;3.60;101659.00;;;;9798004;29;20256;-81
2024/01/19 10:38:37;;;;;;;49.80;26.10;;;;;3.70;101670.00;;;;9789288;30;20298;-81
2024/01/19 10:43:38;;;;;;;39.73;26.43;;;;;3.90;101659.00;;;;9797907;29;20233;-81
2024/01/19 10:48:39;;;;;;;41.37;24.60;;;;;4.10;101659.00;;;;9796611;30;20262;-82
2024/01/19 10:53:40;;;;;;;42.80;23.83;;;;;4.30;101655.00;;;;9771852;30;20228;-82
2024/01/19 10:58:41;;;;;;;36.97;23.63;;;;;4.50;101666.00;;;;9795264;30;20233;-82
2024/01/19 11:03:43;;;;;;;33.10;21.13;;;;;4.70;101667.00;;;;9786373;30;20704;-83
2024/01/19 11:08:45;;;;;;;27.50;17.97;;;;;4.70;101671.00;;;;9788644;29;20243;-84
2024/01/19 11:13:50;;;;;;;25.13;16.87;;;;;4.70;101669.00;;;;9774460;30;20252;-83
2024/01/19 11:18:52;;;;;;;23.27;16.30;;;;;4.70;101676.00;;;;9795799;30;20260;-84
2024/01/19 11:23:54;;;;;;;25.20;17.20;;;;;4.80;101666.00;;;;9782437;30;20236;-84
2024/01/19 11:29:01;;;;;;;24.53;17.03;;;;;5.00;101669.00;;;;9788097;30;20337;-84
2024/01/19 11:34:02;;;;;;;29.40;17.50;;;;;5.00;101682.00;;;;9790724;30;20240;-82
2024/01/19 11:39:05;;;;;;;29.30;17.47;;;;;5.10;101684.00;;;;9812878;29;20236;-81
2024/01/19 11:44:07;;;;;;;30.27;16.30;;;;;5.20;101693.00;;;;9810318;29;20316;-82
2024/01/19 11:49:29;;;;;;;23.50;16.23;;;;;5.20;101688.00;;;;9780881;30;20272;-80
2024/01/19 11:54:33;;;;;;;21.70;14.07;;;;;5.20;101690.00;;;;9772511;30;20574;-80
2024/01/19 11:59:34;;;;;;;20.13;13.43;;;;;5.30;101682.00;;;;9795519;30;20237;-80
2024/01/19 12:04:36;;;;;;;22.33;15.07;;;;;5.30;101685.00;;;;9781094;30;20224;-80
2024/01/19 12:09:37;;;;;;;22.90;14.70;;;;;5.30;101691.00;;;;9777527;30;20883;-80
2024/01/19 12:14:39;;;;;;;23.53;14.30;;;;;5.30;101686.00;;;;9788669;30;20247;-81
2024/01/19 12:19:41;;;;;;;22.80;14.40;;;;;5.30;101693.00;;;;9790685;30;20291;-81
2024/01/19 12:24:42;;;;;;;19.83;14.07;;;;;5.20;101693.00;;;;9759915;30;20661;-80
2024/01/19 12:29:44;;;;;;;20.63;13.50;;;;;5.20;101688.00;;;;9794132;30;20607;-80
2024/01/19 12:34:57;;;;;;;23.13;14.47;;;;;5.20;101694.00;;;;9787781;30;20229;-80
2024/01/19 12:40:19;;;;;;;20.90;14.30;;;;;5.20;101693.00;;;;9803765;29;20241;-79
2024/01/19 12:45:20;;;;;;;24.67;15.33;;;;;5.10;101696.00;;;;9803855;30;22397;-80
2024/01/19 12:50:21;;;;;;;24.27;14.00;;;;;5.10;101690.00;;;;9775377;30;20244;-79
2024/01/19 12:55:26;;;;;;;21.30;15.63;;;;;5.10;101692.00;;;;9790084;30;20339;-80
2024/01/19 13:00:30;;;;;;;21.17;14.70;;;;;5.10;101693.00;;;;9803165;30;20252;-79
2024/01/19 13:05:31;;;;;;;22.13;14.93;;;;;5.10;101699.00;;;;9777518;30;21028;-79
2024/01/19 13:10:33;;;;;;;22.27;15.53;;;;;4.90;101696.00;;;;9797661;30;20249;-79
2024/01/19 13:15:34;;;;;;;25.90;15.57;;;;;4.70;101704.00;;;;9793427;30;20236;-79
2024/01/19 13:20:36;;;;;;;24.87;15.70;;;;;4.70;101709.00;;;;9781057;30;20241;-78
2024/01/19 13:25:39;;;;;;;25.33;15.90;;;;;4.60;101713.00;;;;9772859;30;20243;-77
2024/01/19 13:30:41;;;;;;;19.90;15.27;;;;;4.50;101713.00;;;;9770866;30;20700;-79
2024/01/19 13:35:46;;;;;;;21.60;15.30;;;;;4.40;101722.00;;;;9800233;30;20319;-78
2024/01/19 13:40:47;;;;;;;21.97;14.87;;;;;4.30;101713.00;;;;9792684;30;20674;-78
2024/01/19 13:45:48;;;;;;;30.10;15.40;;;;;4.10;101709.00;;;;9787914;30;20307;-78
2024/01/19 13:50:49;;;;;;;21.33;13.70;;;;;3.90;101715.00;;;;9789231;30;20240;-79
2024/01/19 13:55:51;;;;;;;24.37;14.63;;;;;3.80;101728.00;;;;9802002;30;20243;-79
2024/01/19 14:00:53;;;;;;;22.53;12.90;;;;;3.80;101729.00;;;;9802227;30;20300;-79
2024/01/19 14:05:54;;;;;;;24.40;15.03;;;;;3.60;101729.00;;;;9801952;30;20255;-78
2024/01/19 14:10:56;;;;;;;21.77;15.17;;;;;3.60;101726.00;;;;9815338;29;20248;-79
2024/01/19 14:15:57;;;;;;;23.43;15.13;;;;;3.50;101738.00;;;;9804664;30;20350;-80
2024/01/19 14:20:58;;;;;;;26.53;16.07;;;;;3.30;101737.00;;;;9795344;30;20637;-79
2024/01/19 14:26:01;;;;;;;25.57;15.40;;;;;3.30;101741.00;;;;9774937;30;20233;-78
2024/01/19 14:31:03;;;;;;;25.80;15.90;;;;;2.90;101744.00;;;;9798797;30;20237;-78
2024/01/19 14:36:05;;;;;;;25.20;15.50;;;;;2.50;101732.00;;;;9777521;30;20233;-79
2024/01/19 14:41:06;;;;;;;28.27;16.87;;;;;2.30;101729.00;;;;9795749;30;20810;-78
2024/01/19 14:46:07;;;;;;;29.00;15.97;;;;;2.00;101726.00;;;;9781590;30;20235;-78
2024/01/19 14:51:10;;;;;;;27.60;16.57;;;;;1.80;101732.00;;;;9808637;29;20241;-77
2024/01/19 14:56:12;;;;;;;25.53;16.10;;;;;1.70;101734.00;;;;9793555;30;20241;-79
2024/01/19 15:01:13;;;;;;;24.23;15.83;;;;;1.60;101735.00;;;;9797069;30;20266;-83
2024/01/19 15:06:15;;;;;;;24.30;16.00;;;;;1.40;101753.00;;;;9801088;30;20249;-82
2024/01/19 15:11:16;;;;;;;34.67;17.47;;;;;1.30;101738.00;;;;9783578;30;20251;-82
2024/01/19 15:16:17;;;;;;;30.63;18.20;;;;;1.20;101747.00;;;;9796110;30;20224;-83
2024/01/19 15:21:18;;;;;;;24.67;16.63;;;;;1.20;101758.00;;;;9781950;30;20286;-84
2024/01/19 15:26:19;;;;;;;31.20;18.80;;;;;1.10;101746.00;;;;9782094;30;20244;-83
2024/01/19 15:31:22;;;;;;;32.97;18.17;;;;;1.00;101765.00;;;;9792685;30;20255;-83
2024/01/19 15:36:23;;;;;;;27.47;17.40;;;;;0.80;101766.00;;;;9783548;30;20639;-83
2024/01/19 15:41:25;;;;;;;32.37;17.57;;;;;0.60;101766.00;;;;9762379;30;20252;-83
2024/01/19 15:46:27;;;;;;;33.97;19.03;;;;;0.40;101758.00;;;;9788778;29;20273;-83
2024/01/19 15:51:29;;;;;;;29.10;17.13;;;;;0.30;101764.00;;;;9801061;30;20865;-84
2024/01/19 15:56:32;;;;;;;30.53;19.30;;;;;0.30;101778.00;;;;9792685;30;20290;-84
2024/01/19 16:01:39;;;;;;;34.13;18.77;;;;;0.20;101778.00;;;;9783909;30;20236;-84
2024/01/19 16:06:40;;;;;;;33.23;19.93;;;;;0.20;101782.00;;;;9789290;29;20361;-84
2024/01/19 16:11:42;;;;;;;36.93;19.63;;;;;0.00;101798.00;;;;9800855;30;20236;-84
2024/01/19 16:16:44;;;;;;;31.47;18.73;;;;;-0.10;101807.00;;;;9794926;30;20549;-84
2024/01/19 16:21:55;;;;;;;34.00;19.10;;;;;-0.20;101814.00;;;;9781009;30;20760;-83
2024/01/19 16:26:58;;;;;;;38.90;19.87;;;;;-0.30;101822.00;;;;9781908;30;20233;-82
2024/01/19 16:31:59;;;;;;;32.73;18.13;;;;;-0.40;101833.00;;;;9775687;30;20237;-83
2024/01/19 16:37:02;;;;;;;36.17;19.07;;;;;-0.60;101838.00;;;;9791168;30;20240;-84
2024/01/19 16:42:06;;;;;;;37.23;19.10;;;;;-0.70;101846.00;;;;9772412;30;20247;-83
2024/01/19 16:47:07;;;;;;;33.97;20.60;;;;;-0.80;101861.00;;;;9776224;30;20298;-85
2024/01/19 16:52:08;;;;;;;40.87;21.47;;;;;-0.60;101852.00;;;;9772729;30;20275;-84
2024/01/19 16:57:09;;;;;;;41.67;21.33;;;;;-0.60;101860.00;;;;9792224;30;20236;-85
2024/01/19 17:02:10;;;;;;;38.10;21.40;;;;;-0.60;101876.00;;;;9769374;30;20233;-84
2024/01/19 17:07:12;;;;;;;39.13;20.43;;;;;-0.80;101874.00;;;;9777868;30;20290;-85
2024/01/19 17:12:14;;;;;;;44.43;20.50;;;;;-1.00;101878.00;;;;9789063;29;20324;-84
2024/01/19 17:17:15;;;;;;;40.73;21.57;;;;;-1.10;101893.00;;;;9764555;30;20244;-85
2024/01/19 17:22:16;;;;;;;42.53;22.10;;;;;-1.20;101892.00;;;;9770682;30;20319;-79
2024/01/19 17:27:18;;;;;;;43.13;21.37;;;;;-1.40;101907.00;;;;9757532;30;20240;-81
2024/01/19 17:32:19;;;;;;;35.67;19.53;;;;;-1.50;101906.00;;;;9786005;30;20318;-80
2024/01/19 17:37:20;;;;;;;56.27;25.83;;;;;-1.60;101920.00;;;;9778587;30;20236;-80
2024/01/19 17:42:22;;;;;;;47.27;23.93;;;;;-1.70;101922.00;;;;9774510;30;20296;-79
2024/01/19 17:47:23;;;;;;;48.90;24.33;;;;;-1.80;101922.00;;;;9794393;30;20294;-78
2024/01/19 17:52:34;;;;;;;43.27;22.20;;;;;-1.80;101924.00;;;;9779807;30;20256;-79
2024/01/19 17:57:40;;;;;;;45.73;23.07;;;;;-1.80;101940.00;;;;9776777;30;20310;-81
2024/01/19 18:02:41;;;;;;;49.07;23.03;;;;;-1.80;101942.00;;;;9806287;29;20255;-79
2024/01/19 18:07:42;;;;;;;39.40;18.70;;;;;-1.90;101948.00;;;;9808009;30;20904;-79
2024/01/19 18:12:44;;;;;;;48.70;25.10;;;;;-1.90;101946.00;;;;9774138;30;20240;-79
2024/01/19 18:17:47;;;;;;;44.53;21.73;;;;;-1.90;101968.00;;;;9801240;30;20308;-79
2024/01/19 18:22:48;;;;;;;48.07;21.57;;;;;-1.90;101974.00;;;;9773055;30;20241;-81
2024/01/19 18:27:49;;;;;;;45.77;20.10;;;;;-1.90;101983.00;;;;9802811;30;20240;-79
2024/01/19 18:32:51;;;;;;;47.53;23.70;;;;;-1.90;101993.00;;;;9803048;29;20302;-82
2024/01/19 18:37:53;;;;;;;43.83;19.87;;;;;-1.90;101994.00;;;;9793194;29;20237;-82
2024/01/19 18:42:54;;;;;;;41.23;20.20;;;;;-1.90;102005.00;;;;9775108;30;20244;-82
2024/01/19 18:47:56;;;;;;;43.50;19.47;;;;;-1.90;102000.00;;;;9766510;30;20236;-82
2024/01/19 18:52:57;;;;;;;38.27;17.47;;;;;-1.80;102018.00;;;;9787692;30;20249;-82
2024/01/19 18:58:01;;;;;;;43.77;20.00;;;;;-1.70;102017.00;;;;9797244;30;20501;-82
2024/01/19 19:03:09;;;;;;;48.07;22.17;;;;;-1.60;102015.00;;;;9762515;30;20240;-81
2024/01/19 19:08:10;;;;;;;43.50;20.23;;;;;-1.50;102028.00;;;;9800991;30;20239;-82
2024/01/19 19:13:12;;;;;;;41.57;18.27;;;;;-1.60;102028.00;;;;9782012;30;20228;-82
2024/01/19 19:18:14;;;;;;;41.03;19.80;;;;;-1.60;102034.00;;;;9768863;30;20233;-82
2024/01/19 19:23:15;;;;;;;49.67;22.37;;;;;-1.50;102039.00;;;;9783294;29;20269;-82
2024/01/19 19:28:16;;;;;;;29.20;13.30;;;;;-1.50;102031.00;;;;9808106;29;20825;-82
2024/01/19 19:33:17;;;;;;;45.07;21.20;;;;;-1.50;102039.00;;;;9782690;30;20916;-83
2024/01/19 19:38:18;;;;;;;29.03;11.57;;;;;-1.40;102029.00;;;;9778008;30;20290;-83
2024/01/19 19:43:20;;;;;;;28.53;14.07;;;;;-1.40;102046.00;;;;9798540;30;21094;-83
2024/01/19 19:48:21;;;;;;;44.03;18.53;;;;;-1.30;102043.00;;;;9774883;30;22158;-83
2024/01/19 19:53:22;;;;;;;51.67;19.17;;;;;-1.30;102047.00;;;;9778429;30;20232;-83
2024/01/19 19:58:23;;;;;;;53.60;19.57;;;;;-1.20;102056.00;;;;9796559;29;20228;-83
2024/01/19 20:03:28;;;;;;;44.87;19.30;;;;;-1.10;102050.00;;;;9766840;30;20997;-83
2024/01/19 20:08:29;;;;;;;43.87;20.40;;;;;-1.10;102054.00;;;;9779054;30;20233;-83
2024/01/19 20:13:33;;;;;;;55.47;23.33;;;;;-1.10;102053.00;;;;9792908;30;20332;-83
2024/01/19 20:18:35;;;;;;;49.43;20.43;;;;;-1.00;102047.00;;;;9808866;30;20237;-83
2024/01/19 20:23:36;;;;;;;42.40;17.00;;;;;-1.00;102051.00;;;;9807345;29;20237;-83
2024/01/19 20:28:38;;;;;;;43.57;16.50;;;;;-0.90;102064.00;;;;9795003;30;20251;-83
2024/01/19 20:33:40;;;;;;;38.37;16.17;;;;;-0.90;102069.00;;;;9780372;30;20235;-83
2024/01/19 20:38:41;;;;;;;42.83;16.87;;;;;-0.90;102077.00;;;;9794136;30;20287;-83
2024/01/19 20:43:42;;;;;;;29.53;11.67;;;;;-0.80;102077.00;;;;9768303;30;20256;-83
2024/01/19 20:48:43;;;;;;;44.83;18.77;;;;;-0.80;102077.00;;;;9778116;30;20298;-83
2024/01/19 20:53:45;;;;;;;38.53;15.80;;;;;-0.80;102079.00;;;;9792544;30;20240;-80
2024/01/19 20:58:47;;;;;;;37.80;17.37;;;;;-0.80;102081.00;;;;9791835;30;21372;-79
2024/01/19 21:03:51;;;;;;;45.13;18.47;;;;;-0.80;102078.00;;;;9777688;30;21032;-79
2024/01/19 21:08:52;;;;;;;25.17;11.20;;;;;-0.80;102073.00;;;;9805881;30;20921;-80
2024/01/19 21:13:53;;;;;;;42.80;17.80;;;;;-0.80;102090.00;;;;9805567;30;20241;-78
2024/01/19 21:18:55;;;;;;;43.57;18.60;;;;;-0.80;102090.00;;;;9790931;30;20284;-79
2024/01/19 21:23:57;;;;;;;55.10;17.97;;;;;-0.80;102103.00;;;;9794916;30;20236;-79
2024/01/19 21:28:58;;;;;;;42.07;16.40;;;;;-0.80;102101.00;;;;9790065;30;20241;-78
2024/01/19 21:33:59;;;;;;;31.57;13.87;;;;;-0.80;102100.00;;;;9804943;30;20301;-78
2024/01/19 21:39:01;;;;;;;46.43;17.27;;;;;-0.70;102104.00;;;;9759692;30;20228;-80
2024/01/19 21:44:03;;;;;;;19.00;8.77;;;;;-0.70;102102.00;;;;9786947;30;20233;-78
2024/01/19 21:49:04;;;;;;;39.67;15.87;;;;;-0.70;102113.00;;;;9773929;30;20322;-79
2024/01/19 21:54:05;;;;;;;37.23;15.80;;;;;-0.70;102107.00;;;;9801954;29;20327;-80
2024/01/19 21:59:07;;;;;;;46.87;17.67;;;;;-0.70;102104.00;;;;9767481;30;20290;-80
2024/01/19 22:04:08;;;;;;;36.30;16.23;;;;;-0.70;102100.00;;;;9790983;30;20236;-79
2024/01/19 22:09:09;;;;;;;39.10;17.37;;;;;-0.70;102109.00;;;;9797386;30;20237;-80
2024/01/19 22:14:11;;;;;;;47.30;17.40;;;;;-0.70;102109.00;;;;9802430;29;20228;-78
2024/01/19 22:19:13;;;;;;;36.80;15.83;;;;;-0.70;102099.00;;;;9774458;30;20239;-80
2024/01/19 22:24:14;;;;;;;42.13;17.23;;;;;-0.80;102111.00;;;;9802345;30;20243;-79
2024/01/19 22:29:16;;;;;;;41.53;16.70;;;;;-0.80;102136.00;;;;9788830;30;20251;-79
2024/01/19 22:34:17;;;;;;;37.10;15.37;;;;;-0.80;102132.00;;;;9765991;30;20328;-80
2024/01/19 22:39:24;;;;;;;26.77;12.20;;;;;-0.80;102125.00;;;;9793675;30;20295;-79
2024/01/19 22:44:26;;;;;;;41.63;16.43;;;;;-0.80;102133.00;;;;9788805;30;20335;-78
2024/01/19 22:49:27;;;;;;;39.20;16.60;;;;;-0.90;102137.00;;;;9778566;30;20248;-80
2024/01/19 22:54:28;;;;;;;39.43;16.40;;;;;-0.90;102147.00;;;;9795613;30;20240;-79
2024/01/19 22:59:30;;;;;;;40.20;16.97;;;;;-0.90;102151.00;;;;9779472;30;20654;-80
2024/01/19 23:04:32;;;;;;;39.57;17.13;;;;;-0.90;102152.00;;;;9803755;30;20252;-78
2024/01/19 23:09:34;;;;;;;33.03;13.77;;;;;-0.90;102142.00;;;;9808586;29;20739;-80
2024/01/19 23:14:35;;;;;;;47.50;19.20;;;;;-0.90;102175.00;;;;9796088;30;20344;-83
2024/01/19 23:19:36;;;;;;;40.10;17.50;;;;;-1.00;102183.00;;;;9782283;30;20232;-83
2024/01/19 23:24:38;;;;;;;35.03;16.17;;;;;-1.00;102173.00;;;;9790583;30;20287;-82
2024/01/19 23:29:39;;;;;;;33.77;14.57;;;;;-1.00;102186.00;;;;9798015;30;20261;-82
2024/01/19 23:34:40;;;;;;;35.53;15.80;;;;;-1.10;102184.00;;;;9793558;30;20232;-82
2024/01/19 23:39:42;;;;;;;32.43;14.80;;;;;-1.20;102181.00;;;;9770420;30;20244;-83
2024/01/19 23:44:43;;;;;;;36.57;15.13;;;;;-1.20;102185.00;;;;9779267;30;20910;-82
2024/01/19 23:49:44;;;;;;;29.80;12.37;;;;;-1.20;102180.00;;;;9795099;30;20327;-82
2024/01/19 23:54:46;;;;;;;29.97;13.63;;;;;-1.30;102176.00;;;;9809707;29;20307;-83
2024/01/19 23:59:48;;;;;;;34.37;14.40;;;;;-1.40;102181.00;;;;9778478;30;20236;-83
